Time;durP1;ratioP1;P1;durP2;ratioP2;P2;SDS_P1;SDS_P2;PMS_P1;PMS_P2;Temp;Humidity;BMP_temperature;BMP_pressure;BME280_temperature;BME280_humidity;BME280_pressure;Samples;Min_cycle;Max_cycle;Signal;HPM_P1;HPM_P2
2023/02/19 00:01:14;;;;;;;7.97;5.78;;;9.30;99.90;;;;;;5016355;28;20025;-66
2023/02/19 00:03:41;;;;;;;9.48;6.35;;;9.30;99.90;;;;;;5013036;28;20084;-64
2023/02/19 00:06:10;;;;;;;8.63;5.60;;;9.30;99.90;;;;;;5008610;28;20121;-65
2023/02/19 00:08:37;;;;;;;6.25;5.13;;;9.30;99.90;;;;;;5008614;28;20397;-66
2023/02/19 00:11:06;;;;;;;7.53;5.43;;;9.30;99.90;;;;;;5006809;28;20036;-65
2023/02/19 00:13:39;;;;;;;10.43;7.00;;;9.30;99.90;;;;;;5009603;28;20064;-65
2023/02/19 00:16:06;;;;;;;10.30;7.40;;;9.30;99.90;;;;;;5012509;28;20033;-65
2023/02/19 00:18:32;;;;;;;10.80;8.23;;;9.30;99.90;;;;;;4993268;28;20444;-64
2023/02/19 00:20:57;;;;;;;10.60;7.25;;;9.40;99.90;;;;;;5000580;28;20033;-65
2023/02/19 00:23:23;;;;;;;9.40;7.18;;;9.40;99.90;;;;;;5004933;28;20026;-65
2023/02/19 00:25:48;;;;;;;12.25;7.15;;;9.40;99.90;;;;;;5005598;28;20076;-65
2023/02/19 00:28:14;;;;;;;13.63;8.00;;;9.40;99.90;;;;;;5006473;28;20068;-65
2023/02/19 00:30:39;;;;;;;11.82;7.70;;;9.40;99.90;;;;;;5007686;28;20037;-65
2023/02/19 00:33:07;;;;;;;12.07;7.40;;;9.40;99.90;;;;;;5017218;28;20107;-64
2023/02/19 00:35:33;;;;;;;10.32;7.07;;;9.40;99.90;;;;;;5007348;28;20040;-65
2023/02/19 00:37:59;;;;;;;11.43;7.43;;;9.50;99.90;;;;;;4984374;28;20147;-65
2023/02/19 00:40:25;;;;;;;13.88;7.18;;;9.50;99.90;;;;;;5007854;28;20034;-65
2023/02/19 00:42:51;;;;;;;11.43;8.10;;;9.50;99.90;;;;;;5014706;28;20285;-66
2023/02/19 00:45:16;;;;;;;12.05;8.55;;;9.50;99.90;;;;;;5008791;28;20022;-65
2023/02/19 00:47:42;;;;;;;13.88;8.30;;;9.40;99.90;;;;;;5012109;28;20076;-66
2023/02/19 00:50:08;;;;;;;9.98;7.07;;;9.40;99.90;;;;;;5010894;28;20513;-64
2023/02/19 00:52:34;;;;;;;11.40;8.00;;;9.50;99.90;;;;;;5011364;28;20049;-66
2023/02/19 00:54:59;;;;;;;11.40;7.53;;;9.40;99.90;;;;;;5005913;28;20157;-66
2023/02/19 00:57:25;;;;;;;12.75;8.20;;;9.40;99.90;;;;;;5008712;28;20504;-65
2023/02/19 00:59:50;;;;;;;11.73;7.38;;;9.40;99.90;;;;;;5006043;28;20037;-65
2023/02/19 01:02:16;;;;;;;13.20;7.95;;;9.40;99.90;;;;;;5011319;28;20025;-65
2023/02/19 01:04:42;;;;;;;11.55;8.50;;;9.40;99.90;;;;;;5011423;28;20033;-65
2023/02/19 01:07:07;;;;;;;11.48;8.15;;;9.40;99.90;;;;;;5001999;28;20029;-66
2023/02/19 01:09:33;;;;;;;10.90;7.97;;;9.40;99.90;;;;;;4997597;28;20053;-65
2023/02/19 01:11:59;;;;;;;13.18;8.82;;;9.40;99.90;;;;;;5009100;28;20026;-66
2023/02/19 01:14:24;;;;;;;14.50;9.07;;;9.40;99.90;;;;;;5007694;28;20095;-65
2023/02/19 01:16:50;;;;;;;15.55;8.90;;;9.40;99.90;;;;;;5007587;28;20041;-65
2023/02/19 01:19:16;;;;;;;10.80;7.90;;;9.40;99.90;;;;;;5010231;28;20045;-65
2023/02/19 01:21:41;;;;;;;13.80;8.77;;;9.40;99.90;;;;;;4996582;28;20022;-65
2023/02/19 01:24:07;;;;;;;12.45;6.97;;;9.50;99.90;;;;;;5003261;28;20022;-65
2023/02/19 01:26:33;;;;;;;12.90;7.63;;;9.50;99.90;;;;;;4988266;28;20404;-65
2023/02/19 01:29:00;;;;;;;13.40;7.40;;;9.40;99.90;;;;;;5000079;28;20038;-65
2023/02/19 01:31:26;;;;;;;11.13;7.55;;;9.40;99.90;;;;;;4994664;28;20041;-65
2023/02/19 01:33:55;;;;;;;14.55;7.30;;;9.40;99.90;;;;;;5003427;28;20202;-64
2023/02/19 01:36:21;;;;;;;10.95;7.03;;;9.40;99.90;;;;;;4998743;28;20540;-65
2023/02/19 01:38:48;;;;;;;10.80;7.10;;;9.40;99.90;;;;;;4994187;28;20041;-65
2023/02/19 01:41:20;;;;;;;11.88;7.55;;;9.40;99.90;;;;;;5006395;28;20022;-65
2023/02/19 01:44:11;;;;;;;9.73;6.22;;;9.50;99.90;;;;;;5008994;28;20029;-64
2023/02/19 01:46:39;;;;;;;13.05;7.25;;;9.40;99.90;;;;;;5011538;28;20025;-65
2023/02/19 01:49:12;;;;;;;12.93;6.25;;;9.50;99.90;;;;;;5003748;28;20041;-66
2023/02/19 01:51:43;;;;;;;10.30;7.03;;;9.50;99.90;;;;;;5009430;28;20512;-65
2023/02/19 01:54:12;;;;;;;10.82;6.40;;;9.40;99.90;;;;;;5008523;28;20042;-65
2023/02/19 01:56:41;;;;;;;10.90;6.97;;;9.40;99.90;;;;;;5008704;28;20133;-66
2023/02/19 01:59:07;;;;;;;14.00;6.38;;;9.50;99.90;;;;;;5010044;28;20109;-65
2023/02/19 02:01:33;;;;;;;13.77;7.13;;;9.40;99.90;;;;;;5009993;28;20101;-66
2023/02/19 02:03:59;;;;;;;12.65;6.57;;;9.50;99.90;;;;;;5007343;28;20494;-66
2023/02/19 02:06:30;;;;;;;14.00;5.93;;;9.40;99.90;;;;;;5005147;28;20058;-65
2023/02/19 02:11:46;;;;;;;9.25;5.90;;;9.40;99.90;;;;;;5015320;28;20088;-66
2023/02/19 02:14:11;;;;;;;11.23;6.35;;;9.40;99.90;;;;;;5007310;28;20112;-65
2023/02/19 02:16:59;;;;;;;10.50;5.90;;;9.40;99.90;;;;;;5009212;28;20118;-67
2023/02/19 02:19:43;;;;;;;9.30;5.60;;;9.40;99.90;;;;;;5007230;28;20065;-66
2023/02/19 02:22:19;;;;;;;8.18;5.18;;;9.40;99.90;;;;;;5005354;28;20030;-66
2023/02/19 02:25:07;;;;;;;7.45;4.93;;;9.40;99.90;;;;;;5006466;28;20038;-66
2023/02/19 02:28:06;;;;;;;8.23;4.90;;;9.40;99.90;;;;;;5009201;28;20398;-65
2023/02/19 02:30:40;;;;;;;9.15;4.93;;;9.40;99.90;;;;;;5011374;28;20477;-65
2023/02/19 02:33:15;;;;;;;8.93;4.93;;;9.40;99.90;;;;;;5018300;28;20022;-65
2023/02/19 02:35:53;;;;;;;8.30;5.50;;;9.40;99.90;;;;;;4996462;28;20054;-65
2023/02/19 02:38:23;;;;;;;9.00;5.45;;;9.40;99.90;;;;;;4979404;28;20038;-65
2023/02/19 02:40:50;;;;;;;8.15;5.30;;;9.40;99.90;;;;;;5005777;28;20440;-65
2023/02/19 02:43:15;;;;;;;8.70;5.38;;;9.40;99.90;;;;;;5011654;28;20537;-65
2023/02/19 02:45:41;;;;;;;10.27;5.60;;;9.40;99.90;;;;;;5013083;28;20058;-66
2023/02/19 02:48:10;;;;;;;8.68;5.63;;;9.40;99.90;;;;;;5012821;28;20092;-66
2023/02/19 02:50:49;;;;;;;12.32;6.57;;;9.40;99.90;;;;;;5012286;28;20413;-65
2023/02/19 02:56:31;;;;;;;12.07;6.32;;;9.40;99.90;;;;;;4983051;28;20042;-65
2023/02/19 02:58:59;;;;;;;15.40;6.50;;;9.40;99.90;;;;;;5011370;28;20026;-66
2023/02/19 03:07:51;;;;;;;11.43;5.50;;;9.40;99.90;;;;;;5010561;28;20025;-65
2023/02/19 03:10:22;;;;;;;11.38;5.53;;;9.40;99.90;;;;;;5005855;28;20045;-65
2023/02/19 03:21:15;;;;;;;10.70;5.93;;;9.40;99.90;;;;;;5009273;28;20075;-66
2023/02/19 03:26:31;;;;;;;14.77;6.72;;;9.30;99.90;;;;;;5015551;28;20040;-65
2023/02/19 03:31:45;;;;;;;12.18;6.65;;;9.30;99.90;;;;;;5005007;28;20169;-65
2023/02/19 03:34:16;;;;;;;11.60;6.47;;;9.30;99.90;;;;;;5006844;28;20292;-65
2023/02/19 03:36:47;;;;;;;14.88;5.72;;;9.30;99.90;;;;;;5012425;28;20030;-65
2023/02/19 03:39:16;;;;;;;12.13;5.63;;;9.40;99.90;;;;;;4999681;28;20409;-65
2023/02/19 03:41:41;;;;;;;15.93;7.05;;;9.30;99.90;;;;;;5008943;28;20025;-66
2023/02/19 03:44:10;;;;;;;14.57;7.25;;;9.30;99.90;;;;;;5004278;28;20076;-65
2023/02/19 03:46:41;;;;;;;16.60;7.00;;;9.30;99.90;;;;;;5008311;28;20030;-65
2023/02/19 03:49:25;;;;;;;13.95;7.40;;;9.30;99.90;;;;;;5011268;28;20040;-65
2023/02/19 03:52:00;;;;;;;14.40;7.10;;;9.30;99.90;;;;;;5008443;28;20022;-65
2023/02/19 03:54:45;;;;;;;17.77;7.15;;;9.30;99.90;;;;;;5010045;28;20058;-66
2023/02/19 03:57:14;;;;;;;;;;;9.30;99.90;;;;;;5011868;28;20018;-66
2023/02/19 03:59:58;;;;;;;14.70;7.95;;;9.30;99.90;;;;;;5011286;28;19909;-66
2023/02/19 04:02:42;;;;;;;16.83;7.40;;;9.30;99.90;;;;;;5012677;28;20113;-66
2023/02/19 04:05:21;;;;;;;20.27;7.95;;;9.30;99.90;;;;;;5004651;28;20042;-65
2023/02/19 04:07:50;;;;;;;16.13;8.00;;;9.30;99.90;;;;;;5010512;28;20022;-66
2023/02/19 04:10:17;;;;;;;16.33;8.32;;;9.30;99.90;;;;;;5007207;28;20026;-66
2023/02/19 04:12:48;;;;;;;21.75;10.45;;;9.30;99.90;;;;;;5009789;28;20032;-66
2023/02/19 04:15:20;;;;;;;19.88;9.70;;;9.30;99.90;;;;;;5007454;28;20037;-67
2023/02/19 04:17:51;;;;;;;18.55;9.90;;;9.30;99.90;;;;;;4990007;28;20033;-66
2023/02/19 04:20:18;;;;;;;17.02;8.38;;;9.30;99.90;;;;;;5009663;28;20041;-65
2023/02/19 04:22:45;;;;;;;23.25;9.30;;;9.30;99.90;;;;;;5007389;28;20034;-65
2023/02/19 04:25:10;;;;;;;17.02;10.27;;;9.30;99.90;;;;;;5007038;28;20029;-66
2023/02/19 04:27:37;;;;;;;19.35;8.63;;;9.30;99.90;;;;;;5006762;28;20040;-65
2023/02/19 04:30:05;;;;;;;18.80;8.88;;;9.30;99.90;;;;;;5002712;28;20084;-65
2023/02/19 04:32:30;;;;;;;18.15;10.13;;;9.30;99.90;;;;;;5008123;28;20025;-66
2023/02/19 04:34:56;;;;;;;27.98;10.02;;;9.30;99.90;;;;;;5008407;28;20030;-65
2023/02/19 04:37:21;;;;;;;16.40;8.10;;;9.30;99.90;;;;;;5006527;28;20029;-65
2023/02/19 04:39:47;;;;;;;20.80;9.75;;;9.30;99.90;;;;;;4992653;28;20095;-66
2023/02/19 04:42:12;;;;;;;26.80;9.05;;;9.30;99.90;;;;;;5010307;28;20087;-66
2023/02/19 04:44:38;;;;;;;19.20;8.38;;;9.30;99.90;;;;;;5009477;28;20034;-65
2023/02/19 04:47:04;;;;;;;15.40;8.63;;;9.30;99.90;;;;;;5007993;28;20500;-66
2023/02/19 04:49:29;;;;;;;17.30;9.88;;;9.20;99.90;;;;;;5011901;28;20033;-66
2023/02/19 04:51:55;;;;;;;19.05;10.07;;;9.20;99.90;;;;;;5011768;28;20022;-65
2023/02/19 04:54:20;;;;;;;20.80;9.60;;;9.20;99.90;;;;;;5011332;28;20022;-66
2023/02/19 04:56:46;;;;;;;20.20;10.05;;;9.20;99.90;;;;;;5008480;28;20088;-65
2023/02/19 04:59:11;;;;;;;22.25;10.57;;;9.20;99.90;;;;;;5008804;28;20037;-66
2023/02/19 05:01:37;;;;;;;21.80;10.18;;;9.20;99.90;;;;;;5002190;28;20113;-65
2023/02/19 05:04:03;;;;;;;21.00;10.88;;;9.10;99.90;;;;;;5000379;28;20469;-66
2023/02/19 05:06:29;;;;;;;22.48;11.48;;;9.10;99.90;;;;;;5000321;28;20037;-65
2023/02/19 05:08:54;;;;;;;25.77;10.75;;;9.10;99.90;;;;;;5001299;28;20034;-65
2023/02/19 05:11:22;;;;;;;24.02;10.50;;;9.10;99.90;;;;;;5005636;28;20025;-67
2023/02/19 05:13:48;;;;;;;22.15;10.95;;;9.10;99.90;;;;;;5013812;28;20453;-67
2023/02/19 05:16:15;;;;;;;27.08;10.68;;;9.10;99.90;;;;;;5016158;28;20084;-66
2023/02/19 05:18:42;;;;;;;31.85;11.13;;;9.00;99.90;;;;;;5011706;28;20026;-66
2023/02/19 05:21:09;;;;;;;25.98;10.88;;;9.10;99.90;;;;;;5003216;28;20030;-66
2023/02/19 05:23:34;;;;;;;29.38;11.43;;;9.00;99.90;;;;;;5008111;28;20044;-67
2023/02/19 05:26:08;;;;;;;26.88;12.32;;;9.00;99.90;;;;;;5005440;28;20017;-66
2023/02/19 05:28:34;;;;;;;19.95;10.93;;;9.00;99.90;;;;;;4996203;28;20022;-66
2023/02/19 05:31:05;;;;;;;28.33;11.20;;;9.00;99.90;;;;;;5007892;28;20034;-66
2023/02/19 05:33:31;;;;;;;28.13;12.45;;;9.00;99.90;;;;;;5006154;28;20025;-66
2023/02/19 05:35:56;;;;;;;23.30;12.40;;;8.90;99.90;;;;;;5004245;28;20030;-66
2023/02/19 05:38:23;;;;;;;28.00;10.55;;;9.00;99.90;;;;;;5004548;28;20030;-66
2023/02/19 05:40:48;;;;;;;25.20;11.50;;;8.90;99.90;;;;;;4984259;28;20061;-66
2023/02/19 05:43:14;;;;;;;25.63;12.50;;;8.90;99.90;;;;;;5008821;28;20034;-66
2023/02/19 05:45:40;;;;;;;23.35;11.65;;;8.90;99.90;;;;;;5005989;28;20076;-66
2023/02/19 05:48:06;;;;;;;24.80;12.45;;;8.90;99.90;;;;;;5006169;28;20045;-66
2023/02/19 05:50:34;;;;;;;20.48;11.75;;;8.90;99.90;;;;;;5006436;28;20053;-66
2023/02/19 05:53:00;;;;;;;23.23;11.43;;;8.90;99.90;;;;;;5005915;28;20025;-65
2023/02/19 05:55:27;;;;;;;31.15;13.05;;;8.90;99.90;;;;;;5002903;28;20025;-67
2023/02/19 05:57:53;;;;;;;26.25;12.68;;;8.90;99.90;;;;;;5009684;28;20385;-66
2023/02/19 06:00:19;;;;;;;29.88;13.30;;;8.90;99.90;;;;;;5014852;28;20083;-67
2023/02/19 06:02:45;;;;;;;22.70;12.23;;;8.90;99.90;;;;;;5022755;28;20042;-66
2023/02/19 06:05:12;;;;;;;38.42;14.13;;;8.90;99.90;;;;;;5018162;28;20079;-66
2023/02/19 06:07:38;;;;;;;26.48;14.25;;;8.90;99.90;;;;;;5008175;28;20485;-66
2023/02/19 06:10:05;;;;;;;30.48;13.30;;;8.90;99.90;;;;;;4993776;28;20033;-65
2023/02/19 06:12:31;;;;;;;28.15;13.57;;;8.90;99.90;;;;;;5012312;28;20034;-66
2023/02/19 06:14:56;;;;;;;19.25;10.85;;;8.90;99.90;;;;;;5013921;28;20085;-67
2023/02/19 06:17:22;;;;;;;36.10;12.63;;;8.90;99.90;;;;;;5012230;28;20038;-67
2023/02/19 06:19:47;;;;;;;33.92;13.65;;;8.90;99.90;;;;;;5013058;28;20037;-66
2023/02/19 06:22:14;;;;;;;31.85;12.82;;;8.90;99.90;;;;;;5011747;28;20052;-66
2023/02/19 06:24:40;;;;;;;30.08;15.18;;;8.90;99.90;;;;;;5013338;28;20026;-66
2023/02/19 06:27:07;;;;;;;33.05;14.35;;;8.80;99.90;;;;;;5010074;28;20109;-66
2023/02/19 06:29:33;;;;;;;32.28;14.48;;;8.90;99.90;;;;;;5008553;28;20045;-66
2023/02/19 06:31:59;;;;;;;26.00;14.75;;;8.80;99.90;;;;;;5008637;28;20022;-66
2023/02/19 06:34:24;;;;;;;23.35;12.55;;;8.80;99.90;;;;;;5009239;28;20032;-65
2023/02/19 06:36:50;;;;;;;26.40;14.13;;;8.80;99.90;;;;;;5008078;28;20590;-66
2023/02/19 06:39:16;;;;;;;23.60;11.85;;;8.70;99.90;;;;;;5007132;28;20022;-65
2023/02/19 06:41:42;;;;;;;27.50;13.02;;;8.80;99.90;;;;;;4987218;28;20682;-65
2023/02/19 06:44:07;;;;;;;34.58;16.05;;;8.80;99.90;;;;;;5011453;28;20029;-66
2023/02/19 06:46:34;;;;;;;29.27;14.43;;;8.80;99.90;;;;;;5001191;28;20405;-65
2023/02/19 06:49:00;;;;;;;29.27;14.63;;;8.80;99.90;;;;;;5012202;28;20462;-65
2023/02/19 06:51:28;;;;;;;32.58;16.48;;;8.80;99.90;;;;;;5005463;28;20096;-66
2023/02/19 06:53:54;;;;;;;30.20;17.85;;;8.80;99.90;;;;;;5005844;28;20033;-65
2023/02/19 06:56:31;;;;;;;42.45;18.63;;;8.80;99.90;;;;;;5009195;28;20109;-66
2023/02/19 06:58:59;;;;;;;34.38;16.70;;;8.70;99.90;;;;;;5010759;28;20157;-65
2023/02/19 07:01:26;;;;;;;30.10;15.75;;;8.70;99.90;;;;;;5009242;28;20040;-66
2023/02/19 07:03:52;;;;;;;28.70;15.73;;;8.80;99.90;;;;;;5009066;28;20055;-66
2023/02/19 07:06:18;;;;;;;32.17;16.20;;;8.80;99.90;;;;;;4988177;28;20029;-66
2023/02/19 07:08:44;;;;;;;27.50;15.38;;;8.80;99.90;;;;;;5006293;28;20026;-66
2023/02/19 07:11:10;;;;;;;36.63;16.02;;;8.80;99.90;;;;;;5006945;28;20389;-66
2023/02/19 07:13:35;;;;;;;31.15;15.30;;;8.80;99.90;;;;;;5006758;28;20401;-66
2023/02/19 07:16:10;;;;;;;29.70;15.10;;;8.80;99.90;;;;;;5011290;28;20052;-66
2023/02/19 07:18:36;;;;;;;33.00;14.40;;;8.80;99.90;;;;;;5008280;28;20433;-66
2023/02/19 07:21:09;;;;;;;27.63;15.10;;;8.80;99.90;;;;;;5009334;28;20065;-66
2023/02/19 07:23:35;;;;;;;25.42;13.57;;;8.80;99.90;;;;;;5008827;28;20117;-66
2023/02/19 07:26:01;;;;;;;28.15;14.75;;;8.80;99.90;;;;;;5010377;28;20142;-66
2023/02/19 07:28:27;;;;;;;27.70;14.40;;;8.80;99.90;;;;;;5006898;28;20034;-65
2023/02/19 07:30:58;;;;;;;27.30;14.93;;;8.80;99.90;;;;;;5009725;28;20033;-66
2023/02/19 07:33:24;;;;;;;27.08;15.27;;;8.80;99.90;;;;;;5006420;28;20489;-66
2023/02/19 07:35:50;;;;;;;25.02;13.73;;;8.80;99.90;;;;;;5004646;28;20041;-66
2023/02/19 07:38:17;;;;;;;25.88;13.65;;;8.80;99.90;;;;;;5002920;28;20518;-65
2023/02/19 07:40:56;;;;;;;23.48;13.55;;;8.80;99.90;;;;;;4987789;28;20053;-65
2023/02/19 07:43:24;;;;;;;31.75;13.60;;;8.80;99.90;;;;;;5009143;28;20034;-65
2023/02/19 07:45:50;;;;;;;34.53;13.65;;;8.80;99.90;;;;;;4998172;28;20570;-66
2023/02/19 07:48:16;;;;;;;36.38;14.75;;;8.80;99.90;;;;;;4992159;28;20033;-68
2023/02/19 07:50:49;;;;;;;37.45;14.85;;;8.80;99.90;;;;;;5005924;28;20037;-67
2023/02/19 07:53:14;;;;;;;32.83;14.60;;;8.80;99.90;;;;;;4989049;28;20109;-65
2023/02/19 07:55:40;;;;;;;32.60;14.88;;;8.80;99.90;;;;;;5009638;28;20129;-65
2023/02/19 07:58:05;;;;;;;23.63;12.98;;;8.80;99.90;;;;;;5010765;28;20029;-65
2023/02/19 08:00:31;;;;;;;23.80;13.73;;;8.80;99.90;;;;;;5008209;28;20046;-65
2023/02/19 08:02:59;;;;;;;27.63;12.27;;;8.90;99.90;;;;;;5010682;28;20025;-65
2023/02/19 08:05:30;;;;;;;29.52;12.32;;;8.80;99.90;;;;;;5011465;28;20022;-65
2023/02/19 08:07:56;;;;;;;21.85;10.45;;;8.90;99.90;;;;;;5011788;28;20394;-67
2023/02/19 08:13:21;;;;;;;23.25;8.65;;;9.00;99.90;;;;;;5003486;28;20807;-66
2023/02/19 08:15:50;;;;;;;20.27;9.05;;;9.10;99.90;;;;;;5011724;28;20029;-65
2023/02/19 08:18:18;;;;;;;18.40;8.05;;;9.10;99.90;;;;;;5007251;28;20026;-66
2023/02/19 08:20:43;;;;;;;16.48;9.32;;;9.10;99.90;;;;;;5008646;28;20076;-67
2023/02/19 08:23:10;;;;;;;18.02;8.02;;;9.10;99.90;;;;;;5011612;28;20371;-67
2023/02/19 08:25:37;;;;;;;17.85;8.55;;;9.10;99.90;;;;;;5008400;28;20405;-67
2023/02/19 08:28:03;;;;;;;24.40;8.15;;;9.00;99.90;;;;;;5007660;28;20026;-65
2023/02/19 08:30:29;;;;;;;17.75;7.70;;;9.00;99.90;;;;;;5007042;28;20447;-65
2023/02/19 08:32:56;;;;;;;16.25;7.72;;;9.00;99.90;;;;;;5003529;28;20053;-65
2023/02/19 08:35:22;;;;;;;23.65;9.10;;;9.00;99.90;;;;;;5005644;28;20038;-67
2023/02/19 08:37:47;;;;;;;19.90;8.10;;;9.10;99.90;;;;;;5005931;28;20037;-65
2023/02/19 08:40:13;;;;;;;17.10;8.32;;;9.00;99.90;;;;;;4986776;28;20053;-67
2023/02/19 08:42:39;;;;;;;18.88;9.25;;;9.00;99.90;;;;;;5005934;28;20033;-67
2023/02/19 08:45:05;;;;;;;18.00;9.00;;;8.90;99.90;;;;;;5006090;28;20099;-67
2023/02/19 08:47:30;;;;;;;16.58;8.63;;;8.90;99.90;;;;;;5007074;28;20421;-67
2023/02/19 08:49:56;;;;;;;18.02;9.45;;;8.90;99.90;;;;;;5010833;28;20030;-68
2023/02/19 08:52:21;;;;;;;22.10;9.93;;;8.90;99.90;;;;;;4995709;28;20038;-66
2023/02/19 08:54:47;;;;;;;29.48;10.68;;;8.90;99.90;;;;;;5008935;28;20042;-66
2023/02/19 08:57:12;;;;;;;27.42;10.13;;;8.90;99.90;;;;;;5004365;28;20022;-67
2023/02/19 08:59:38;;;;;;;111.93;29.05;;;9.00;99.90;;;;;;5007736;28;20033;-67
2023/02/19 09:02:03;;;;;;;262.77;55.90;;;9.10;99.90;;;;;;5006275;28;20113;-67
2023/02/19 09:04:29;;;;;;;58.78;20.77;;;9.20;99.90;;;;;;5008869;28;20123;-67
2023/02/19 09:06:55;;;;;;;24.00;10.13;;;9.20;99.90;;;;;;5004493;28;20405;-67
2023/02/19 09:09:20;;;;;;;24.88;10.38;;;9.30;99.90;;;;;;5005790;28;20040;-66
2023/02/19 09:11:46;;;;;;;19.60;10.13;;;9.30;99.90;;;;;;5004809;28;20034;-67
2023/02/19 09:14:11;;;;;;;17.90;10.10;;;9.30;99.90;;;;;;5005186;28;20120;-66
2023/02/19 09:16:37;;;;;;;20.58;9.50;;;9.40;99.90;;;;;;5007192;28;20485;-67
2023/02/19 09:19:03;;;;;;;22.52;10.55;;;9.40;99.90;;;;;;5007752;28;20045;-67
2023/02/19 09:21:29;;;;;;;18.75;9.82;;;9.50;99.90;;;;;;5011417;28;20101;-66
2023/02/19 09:23:55;;;;;;;20.77;9.00;;;9.50;99.90;;;;;;5005117;28;20463;-66
2023/02/19 09:26:20;;;;;;;18.38;8.00;;;9.60;99.90;;;;;;5005640;28;20033;-67
2023/02/19 09:28:46;;;;;;;20.52;9.95;;;9.60;99.90;;;;;;5007564;28;20049;-67
2023/02/19 09:31:14;;;;;;;19.75;8.32;;;9.70;99.90;;;;;;5003620;28;20036;-67
2023/02/19 09:33:47;;;;;;;20.80;8.32;;;9.70;99.90;;;;;;5011611;28;20018;-67
2023/02/19 09:36:14;;;;;;;15.88;9.05;;;9.70;99.90;;;;;;5003536;28;20092;-67
2023/02/19 09:38:40;;;;;;;20.13;9.43;;;9.70;99.90;;;;;;5001031;28;20038;-66
2023/02/19 09:41:08;;;;;;;20.05;9.82;;;9.80;99.90;;;;;;4988890;28;20473;-68
2023/02/19 09:43:35;;;;;;;15.32;9.02;;;9.90;99.90;;;;;;5007687;28;20056;-67
2023/02/19 09:46:20;;;;;;;19.90;9.75;;;10.10;99.90;;;;;;5007592;28;20497;-66
2023/02/19 09:48:46;;;;;;;16.67;8.30;;;10.40;99.90;;;;;;5006861;28;20033;-67
2023/02/19 09:51:14;;;;;;;24.17;9.10;;;10.60;99.90;;;;;;5006158;28;20080;-67
2023/02/19 09:53:44;;;;;;;17.98;8.18;;;10.60;99.90;;;;;;5001122;28;20428;-67
2023/02/19 09:56:10;;;;;;;16.42;8.57;;;10.50;99.90;;;;;;5007514;28;20049;-66
2023/02/19 09:58:46;;;;;;;12.05;7.20;;;10.50;99.90;;;;;;5002359;28;20054;-67
2023/02/19 10:01:12;;;;;;;21.10;8.05;;;10.40;99.90;;;;;;5007301;28;20026;-67
2023/02/19 10:03:42;;;;;;;24.50;8.80;;;10.30;99.90;;;;;;5016708;28;20505;-66
2023/02/19 10:06:23;;;;;;;14.63;8.30;;;10.20;99.90;;;;;;5008017;28;20056;-67
2023/02/19 10:08:55;;;;;;;18.23;8.20;;;10.20;99.90;;;;;;5008005;28;20097;-67
2023/02/19 10:11:22;;;;;;;17.50;8.32;;;10.00;99.90;;;;;;4992164;28;20069;-67
2023/02/19 10:14:05;;;;;;;21.80;8.13;;;10.00;99.90;;;;;;5008447;28;20041;-66
2023/02/19 10:16:31;;;;;;;16.25;7.65;;;10.00;99.90;;;;;;5009044;28;20026;-67
2023/02/19 10:18:56;;;;;;;22.52;7.57;;;10.00;99.90;;;;;;5022581;28;20530;-67
2023/02/19 10:21:26;;;;;;;16.98;7.15;;;10.00;99.90;;;;;;5013852;28;20029;-66
2023/02/19 10:23:55;;;;;;;13.95;6.45;;;10.00;99.90;;;;;;5002913;28;20389;-67
2023/02/19 10:26:22;;;;;;;11.20;6.90;;;10.00;99.90;;;;;;5014514;28;20404;-67
2023/02/19 10:28:48;;;;;;;15.57;7.82;;;10.00;99.90;;;;;;5004982;28;20049;-67
2023/02/19 10:31:19;;;;;;;13.38;7.82;;;10.00;99.90;;;;;;5005198;28;20484;-67
2023/02/19 10:34:00;;;;;;;17.58;6.38;;;10.00;99.90;;;;;;5006499;28;20498;-67
2023/02/19 10:36:36;;;;;;;16.45;6.70;;;10.00;99.90;;;;;;5005775;28;20035;-67
2023/02/19 10:39:13;;;;;;;10.80;5.90;;;10.00;99.90;;;;;;5000934;28;20053;-67
2023/02/19 10:41:40;;;;;;;16.30;6.95;;;10.00;99.90;;;;;;4984723;28;20613;-67
2023/02/19 10:44:15;;;;;;;11.32;5.78;;;10.00;99.90;;;;;;5009542;28;20022;-67
2023/02/19 10:46:54;;;;;;;6.93;4.60;;;10.00;99.90;;;;;;5008571;28;20520;-67
2023/02/19 10:49:30;;;;;;;9.13;6.03;;;10.10;99.90;;;;;;5009614;28;20105;-67
2023/02/19 10:52:21;;;;;;;10.93;5.63;;;10.20;99.90;;;;;;5011162;28;20030;-67
2023/02/19 10:54:51;;;;;;;11.23;5.25;;;10.10;99.90;;;;;;4995462;28;20061;-67
2023/02/19 10:57:24;;;;;;;13.73;5.40;;;9.90;99.90;;;;;;5007926;28;20040;-66
2023/02/19 10:59:56;;;;;;;16.27;6.47;;;9.80;99.90;;;;;;5004789;28;20461;-67
2023/02/19 11:02:22;;;;;;;8.02;4.82;;;9.60;99.90;;;;;;5006901;28;20386;-66
2023/02/19 11:05:17;;;;;;;8.00;4.85;;;9.60;99.90;;;;;;4989821;28;20029;-67
2023/02/19 11:07:55;;;;;;;11.40;5.07;;;9.70;99.90;;;;;;5002138;28;20034;-67
2023/02/19 11:10:28;;;;;;;8.65;4.70;;;9.80;99.90;;;;;;5005948;28;20118;-66
2023/02/19 11:12:57;;;;;;;16.20;4.95;;;9.90;99.90;;;;;;5009579;28;20018;-67
2023/02/19 11:15:32;;;;;;;8.85;3.97;;;10.00;99.90;;;;;;5010116;28;20029;-66
2023/02/19 11:18:17;;;;;;;9.80;4.13;;;10.00;99.90;;;;;;5009534;28;20061;-67
2023/02/19 11:21:02;;;;;;;7.80;4.18;;;10.00;99.90;;;;;;5004173;28;20072;-67
2023/02/19 11:23:35;;;;;;;8.13;4.10;;;9.90;99.90;;;;;;5002511;28;20026;-67
2023/02/19 11:26:13;;;;;;;10.50;5.03;;;9.90;99.90;;;;;;5002853;28;20026;-67
2023/02/19 11:28:40;;;;;;;6.10;4.30;;;9.90;99.90;;;;;;5010491;28;20072;-67
2023/02/19 11:31:11;;;;;;;10.90;5.22;;;9.90;99.90;;;;;;5013053;28;20038;-67
2023/02/19 11:33:44;;;;;;;12.25;4.43;;;9.90;99.90;;;;;;5009366;28;20030;-66
2023/02/19 11:36:25;;;;;;;9.25;5.00;;;10.00;99.90;;;;;;5004888;28;20061;-67
2023/02/19 11:38:52;;;;;;;9.40;5.78;;;10.10;99.90;;;;;;5001824;28;20026;-67
2023/02/19 11:41:47;;;;;;;9.60;5.05;;;10.00;99.90;;;;;;4987802;28;20038;-67
2023/02/19 11:44:32;;;;;;;16.15;5.57;;;10.00;99.90;;;;;;4967022;28;20042;-67
2023/02/19 11:47:04;;;;;;;10.55;5.93;;;10.20;99.90;;;;;;4991946;28;20110;-67
2023/02/19 11:49:53;;;;;;;15.15;5.72;;;10.50;99.90;;;;;;5011134;28;20051;-65
2023/02/19 11:52:34;;;;;;;9.55;5.15;;;10.70;99.90;;;;;;4990803;28;20030;-66
2023/02/19 11:55:28;;;;;;;11.93;5.15;;;11.00;99.90;;;;;;5002373;28;20080;-66
2023/02/19 11:58:37;;;;;;;11.10;5.38;;;11.20;99.90;;;;;;5006896;28;20040;-67
2023/02/19 12:01:33;;;;;;;12.80;5.00;;;11.40;99.90;;;;;;5007923;28;20504;-66
2023/02/19 12:04:27;;;;;;;10.93;4.50;;;11.50;99.90;;;;;;5023307;28;20044;-66
2023/02/19 12:07:30;;;;;;;9.57;4.60;;;11.60;99.90;;;;;;5008276;28;20268;-67
2023/02/19 12:10:24;;;;;;;9.00;5.33;;;11.60;99.90;;;;;;5012112;28;20033;-67
2023/02/19 12:12:55;;;;;;;18.48;6.82;;;11.50;99.90;;;;;;5009419;28;20033;-66
2023/02/19 12:15:21;;;;;;;13.25;4.97;;;11.30;99.90;;;;;;5023670;28;20036;-66
2023/02/19 12:18:17;;;;;;;9.48;5.35;;;11.20;99.90;;;;;;5010503;28;20121;-67
2023/02/19 12:20:55;;;;;;;8.60;5.45;;;11.00;99.90;;;;;;5007385;28;20080;-66
2023/02/19 12:23:53;;;;;;;13.07;5.90;;;10.70;99.90;;;;;;5013998;28;20026;-66
2023/02/19 12:26:40;;;;;;;15.30;8.13;;;10.50;99.90;;;;;;4996474;28;20042;-67
2023/02/19 12:29:45;;;;;;;18.27;7.45;;;10.50;99.90;;;;;;5004129;28;20033;-65
2023/02/19 12:32:20;;;;;;;11.60;6.88;;;10.60;99.90;;;;;;5001722;28;20030;-66
2023/02/19 12:35:16;;;;;;;10.93;6.00;;;10.70;99.90;;;;;;5004214;28;20030;-66
2023/02/19 12:38:10;;;;;;;12.75;5.38;;;10.80;99.90;;;;;;4980790;28;20023;-66
2023/02/19 12:40:54;;;;;;;;;;;10.80;99.90;;;;;;5006889;28;20057;-66
2023/02/19 12:43:22;;;;;;;9.40;5.35;;;11.00;99.90;;;;;;4990046;28;20003;-67
2023/02/19 12:45:56;;;;;;;15.27;6.53;;;11.20;99.90;;;;;;5004356;28;20038;-66
2023/02/19 12:48:25;;;;;;;14.45;7.03;;;11.10;99.90;;;;;;4988236;28;20551;-66
2023/02/19 12:50:56;;;;;;;11.77;6.55;;;11.10;99.90;;;;;;5007267;28;20030;-67
2023/02/19 12:53:53;;;;;;;18.77;6.63;;;11.20;99.90;;;;;;5004996;28;20490;-67
2023/02/19 12:56:25;;;;;;;11.63;6.53;;;11.20;99.90;;;;;;5002696;28;20096;-65
2023/02/19 12:59:06;;;;;;;12.90;6.63;;;11.00;99.90;;;;;;4998077;28;20096;-66
2023/02/19 13:01:57;;;;;;;13.88;7.45;;;11.00;99.90;;;;;;5005533;28;20036;-67
2023/02/19 13:04:33;;;;;;;12.10;7.00;;;11.20;99.90;;;;;;4968505;28;20043;-67
2023/02/19 13:07:10;;;;;;;15.25;8.30;;;11.20;99.90;;;;;;4994602;28;20766;-68
2023/02/19 13:09:56;;;;;;;14.13;8.10;;;11.20;99.90;;;;;;5004576;28;20463;-67
2023/02/19 13:12:30;;;;;;;13.90;8.65;;;11.30;99.90;;;;;;5006968;28;20041;-67
2023/02/19 13:15:34;;;;;;;13.98;9.32;;;11.30;99.90;;;;;;5013666;28;20037;-64
2023/02/19 13:18:01;;;;;;;15.32;8.23;;;11.30;99.90;;;;;;4995406;28;20034;-67
2023/02/19 13:20:40;;;;;;;11.50;7.45;;;11.30;99.90;;;;;;5018000;28;20064;-67
2023/02/19 13:26:28;;;;;;;13.13;6.38;;;11.20;99.90;;;;;;5004904;28;20073;-67
2023/02/19 13:28:56;;;;;;;13.02;6.43;;;11.00;99.90;;;;;;5011935;28;20026;-67
2023/02/19 13:31:53;;;;;;;15.90;7.93;;;10.80;99.90;;;;;;5009345;28;20024;-67
2023/02/19 13:34:28;;;;;;;13.15;6.85;;;10.70;99.90;;;;;;4997453;28;20070;-67